sensor_id;sensor_type;location;lat;lon;timestamp;temperature;humidity
45785;DHT22;31489;51.404;5.474;2022-11-03T00:01:46;16.00;58.10
45785;DHT22;31489;51.404;5.474;2022-11-03T00:04:14;16.00;58.30
45785;DHT22;31489;51.404;5.474;2022-11-03T00:06:41;16.00;58.20
45785;DHT22;31489;51.404;5.474;2022-11-03T00:09:09;16.00;58.20
45785;DHT22;31489;51.404;5.474;2022-11-03T00:11:37;16.00;58.10
45785;DHT22;31489;51.404;5.474;2022-11-03T00:14:03;16.00;58.20
45785;DHT22;31489;51.404;5.474;2022-11-03T00:16:30;16.00;58.20
45785;DHT22;31489;51.404;5.474;2022-11-03T00:18:56;16.00;58.10
45785;DHT22;31489;51.404;5.474;2022-11-03T00:21:22;16.00;58.20
45785;DHT22;31489;51.404;5.474;2022-11-03T00:23:48;16.00;58.20
45785;DHT22;31489;51.404;5.474;2022-11-03T00:26:16;16.00;58.30
45785;DHT22;31489;51.404;5.474;2022-11-03T00:28:47;16.00;58.30
45785;DHT22;31489;51.404;5.474;2022-11-03T00:31:18;16.10;58.50
45785;DHT22;31489;51.404;5.474;2022-11-03T00:33:45;16.00;58.40
45785;DHT22;31489;51.404;5.474;2022-11-03T00:36:13;16.00;58.20
45785;DHT22;31489;51.404;5.474;2022-11-03T00:38:41;16.10;58.30
45785;DHT22;31489;51.404;5.474;2022-11-03T00:41:07;16.10;58.10
45785;DHT22;31489;51.404;5.474;2022-11-03T00:43:34;16.10;58.20
45785;DHT22;31489;51.404;5.474;2022-11-03T00:46:01;16.10;58.20
45785;DHT22;31489;51.404;5.474;2022-11-03T00:48:27;16.10;58.10
45785;DHT22;31489;51.404;5.474;2022-11-03T00:53:27;16.10;58.30
45785;DHT22;31489;51.404;5.474;2022-11-03T00:55:53;16.10;58.20
45785;DHT22;31489;51.404;5.474;2022-11-03T00:58:19;16.10;58.20
45785;DHT22;31489;51.404;5.474;2022-11-03T01:00:44;16.10;58.30
45785;DHT22;31489;51.404;5.474;2022-11-03T01:03:10;16.10;58.30
45785;DHT22;31489;51.404;5.474;2022-11-03T01:05:40;16.10;58.30
45785;DHT22;31489;51.404;5.474;2022-11-03T01:08:24;16.10;58.50
45785;DHT22;31489;51.404;5.474;2022-11-03T01:10:50;16.10;58.20
45785;DHT22;31489;51.404;5.474;2022-11-03T01:13:34;16.10;58.20
45785;DHT22;31489;51.404;5.474;2022-11-03T01:16:00;16.10;58.30
45785;DHT22;31489;51.404;5.474;2022-11-03T01:18:25;16.10;58.30
45785;DHT22;31489;51.404;5.474;2022-11-03T01:20:55;16.10;58.30
45785;DHT22;31489;51.404;5.474;2022-11-03T01:23:21;16.10;58.40
45785;DHT22;31489;51.404;5.474;2022-11-03T01:25:47;16.10;58.30
45785;DHT22;31489;51.404;5.474;2022-11-03T01:28:13;16.10;58.40
45785;DHT22;31489;51.404;5.474;2022-11-03T01:30:38;16.10;58.50
45785;DHT22;31489;51.404;5.474;2022-11-03T01:33:04;16.20;58.50
45785;DHT22;31489;51.404;5.474;2022-11-03T01:35:30;16.10;58.40
45785;DHT22;31489;51.404;5.474;2022-11-03T01:37:55;16.10;58.40
45785;DHT22;31489;51.404;5.474;2022-11-03T01:40:21;16.20;58.40
45785;DHT22;31489;51.404;5.474;2022-11-03T01:42:47;16.10;58.40
45785;DHT22;31489;51.404;5.474;2022-11-03T01:45:13;16.20;58.50
45785;DHT22;31489;51.404;5.474;2022-11-03T01:47:40;16.10;58.40
45785;DHT22;31489;51.404;5.474;2022-11-03T01:50:10;16.20;58.50
45785;DHT22;31489;51.404;5.474;2022-11-03T01:52:41;16.20;58.50
45785;DHT22;31489;51.404;5.474;2022-11-03T01:55:41;16.20;58.60
45785;DHT22;31489;51.404;5.474;2022-11-03T01:58:14;16.20;58.50
45785;DHT22;31489;51.404;5.474;2022-11-03T02:00:43;16.20;58.70
45785;DHT22;31489;51.404;5.474;2022-11-03T02:03:10;16.20;58.50
45785;DHT22;31489;51.404;5.474;2022-11-03T02:05:36;16.20;58.50
45785;DHT22;31489;51.404;5.474;2022-11-03T02:08:36;16.20;58.60
45785;DHT22;31489;51.404;5.474;2022-11-03T02:11:03;16.10;58.80
45785;DHT22;31489;51.404;5.474;2022-11-03T02:13:48;16.20;58.50
45785;DHT22;31489;51.404;5.474;2022-11-03T02:16:14;16.20;58.60
45785;DHT22;31489;51.404;5.474;2022-11-03T02:18:41;16.20;58.70
45785;DHT22;31489;51.404;5.474;2022-11-03T02:21:29;16.10;58.70
45785;DHT22;31489;51.404;5.474;2022-11-03T02:24:16;16.20;59.00
45785;DHT22;31489;51.404;5.474;2022-11-03T02:26:47;16.20;59.20
45785;DHT22;31489;51.404;5.474;2022-11-03T02:29:13;16.10;58.90
45785;DHT22;31489;51.404;5.474;2022-11-03T02:31:42;16.20;58.90
45785;DHT22;31489;51.404;5.474;2022-11-03T02:36:56;16.20;59.30
45785;DHT22;31489;51.404;5.474;2022-11-03T02:42:04;16.10;59.40
45785;DHT22;31489;51.404;5.474;2022-11-03T02:44:32;16.10;59.20
45785;DHT22;31489;51.404;5.474;2022-11-03T02:47:00;16.20;59.30
45785;DHT22;31489;51.404;5.474;2022-11-03T02:49:28;16.10;59.40
45785;DHT22;31489;51.404;5.474;2022-11-03T02:52:00;16.10;59.40
45785;DHT22;31489;51.404;5.474;2022-11-03T02:54:32;16.10;59.60
45785;DHT22;31489;51.404;5.474;2022-11-03T02:57:06;16.20;59.60
45785;DHT22;31489;51.404;5.474;2022-11-03T03:00:03;16.10;59.70
45785;DHT22;31489;51.404;5.474;2022-11-03T03:02:40;16.10;60.40
45785;DHT22;31489;51.404;5.474;2022-11-03T03:05:10;16.10;59.80
45785;DHT22;31489;51.404;5.474;2022-11-03T03:07:39;16.20;59.70
45785;DHT22;31489;51.404;5.474;2022-11-03T03:10:13;16.20;60.30
45785;DHT22;31489;51.404;5.474;2022-11-03T03:12:48;16.20;59.80
45785;DHT22;31489;51.404;5.474;2022-11-03T03:15:16;16.20;59.80
45785;DHT22;31489;51.404;5.474;2022-11-03T03:17:53;16.20;59.70
45785;DHT22;31489;51.404;5.474;2022-11-03T03:20:36;16.20;60.10
45785;DHT22;31489;51.404;5.474;2022-11-03T03:23:15;16.20;60.00
45785;DHT22;31489;51.404;5.474;2022-11-03T03:25:57;16.20;60.00
45785;DHT22;31489;51.404;5.474;2022-11-03T03:28:48;16.20;60.10
45785;DHT22;31489;51.404;5.474;2022-11-03T03:31:18;16.20;60.20
45785;DHT22;31489;51.404;5.474;2022-11-03T03:33:46;16.20;60.60
45785;DHT22;31489;51.404;5.474;2022-11-03T03:36:16;16.20;60.10
45785;DHT22;31489;51.404;5.474;2022-11-03T03:38:47;16.20;60.20
45785;DHT22;31489;51.404;5.474;2022-11-03T03:41:15;16.20;60.40
45785;DHT22;31489;51.404;5.474;2022-11-03T03:43:53;16.20;60.30
45785;DHT22;31489;51.404;5.474;2022-11-03T03:46:21;16.10;60.60
45785;DHT22;31489;51.404;5.474;2022-11-03T03:48:48;16.20;60.50
45785;DHT22;31489;51.404;5.474;2022-11-03T03:51:17;16.20;60.50
45785;DHT22;31489;51.404;5.474;2022-11-03T03:53:49;16.20;60.70
45785;DHT22;31489;51.404;5.474;2022-11-03T03:56:15;16.20;60.90
45785;DHT22;31489;51.404;5.474;2022-11-03T03:58:42;16.20;60.70
45785;DHT22;31489;51.404;5.474;2022-11-03T04:01:11;16.20;60.70
45785;DHT22;31489;51.404;5.474;2022-11-03T04:03:36;16.20;60.90
45785;DHT22;31489;51.404;5.474;2022-11-03T04:06:02;16.20;60.80
45785;DHT22;31489;51.404;5.474;2022-11-03T04:08:28;16.20;60.90
45785;DHT22;31489;51.404;5.474;2022-11-03T04:10:53;16.20;60.90
45785;DHT22;31489;51.404;5.474;2022-11-03T04:13:37;16.20;60.90
45785;DHT22;31489;51.404;5.474;2022-11-03T04:16:21;16.20;60.90
45785;DHT22;31489;51.404;5.474;2022-11-03T04:19:10;16.20;61.00
45785;DHT22;31489;51.404;5.474;2022-11-03T04:21:54;16.20;61.20
45785;DHT22;31489;51.404;5.474;2022-11-03T04:24:38;16.20;61.40
45785;DHT22;31489;51.404;5.474;2022-11-03T04:29:43;16.20;61.60
45785;DHT22;31489;51.404;5.474;2022-11-03T04:32:13;16.20;61.40
45785;DHT22;31489;51.404;5.474;2022-11-03T04:34:40;16.20;61.70
45785;DHT22;31489;51.404;5.474;2022-11-03T04:37:10;16.20;61.60
45785;DHT22;31489;51.404;5.474;2022-11-03T04:39:40;16.20;61.80
45785;DHT22;31489;51.404;5.474;2022-11-03T04:42:18;16.20;62.00
45785;DHT22;31489;51.404;5.474;2022-11-03T04:44:45;16.20;62.40
45785;DHT22;31489;51.404;5.474;2022-11-03T04:47:13;16.20;62.00
45785;DHT22;31489;51.404;5.474;2022-11-03T04:49:38;16.20;62.10
45785;DHT22;31489;51.404;5.474;2022-11-03T04:52:19;16.20;62.20
45785;DHT22;31489;51.404;5.474;2022-11-03T04:54:47;16.20;62.70
45785;DHT22;31489;51.404;5.474;2022-11-03T04:57:14;16.20;62.40
45785;DHT22;31489;51.404;5.474;2022-11-03T04:59:45;16.20;62.40
45785;DHT22;31489;51.404;5.474;2022-11-03T05:02:16;16.20;62.60
45785;DHT22;31489;51.404;5.474;2022-11-03T05:04:43;16.20;62.70
45785;DHT22;31489;51.404;5.474;2022-11-03T05:09:46;16.20;63.10
45785;DHT22;31489;51.404;5.474;2022-11-03T05:12:12;16.20;62.90
45785;DHT22;31489;51.404;5.474;2022-11-03T05:14:38;16.20;63.00
45785;DHT22;31489;51.404;5.474;2022-11-03T05:17:23;16.20;63.00
45785;DHT22;31489;51.404;5.474;2022-11-03T05:19:57;16.20;63.30
45785;DHT22;31489;51.404;5.474;2022-11-03T05:22:25;16.20;63.30
45785;DHT22;31489;51.404;5.474;2022-11-03T05:25:01;16.20;63.00
45785;DHT22;31489;51.404;5.474;2022-11-03T05:27:27;16.20;63.40
45785;DHT22;31489;51.404;5.474;2022-11-03T05:29:56;16.20;63.10
45785;DHT22;31489;51.404;5.474;2022-11-03T05:32:32;16.20;63.40
45785;DHT22;31489;51.404;5.474;2022-11-03T05:34:58;16.20;63.50
45785;DHT22;31489;51.404;5.474;2022-11-03T05:37:28;16.20;63.20
45785;DHT22;31489;51.404;5.474;2022-11-03T05:42:45;16.20;63.70
45785;DHT22;31489;51.404;5.474;2022-11-03T05:45:21;16.20;63.50
45785;DHT22;31489;51.404;5.474;2022-11-03T05:47:48;16.20;63.90
45785;DHT22;31489;51.404;5.474;2022-11-03T05:50:21;16.30;63.60
45785;DHT22;31489;51.404;5.474;2022-11-03T05:52:52;16.30;63.90
45785;DHT22;31489;51.404;5.474;2022-11-03T05:55:26;16.30;63.70
45785;DHT22;31489;51.404;5.474;2022-11-03T05:57:59;16.20;63.70
45785;DHT22;31489;51.404;5.474;2022-11-03T06:00:32;16.30;63.90
45785;DHT22;31489;51.404;5.474;2022-11-03T06:02:58;16.30;63.70
45785;DHT22;31489;51.404;5.474;2022-11-03T06:05:26;16.30;63.70
45785;DHT22;31489;51.404;5.474;2022-11-03T06:07:53;16.30;63.80
45785;DHT22;31489;51.404;5.474;2022-11-03T06:10:28;16.30;63.70
45785;DHT22;31489;51.404;5.474;2022-11-03T06:13:01;16.20;63.90
45785;DHT22;31489;51.404;5.474;2022-11-03T06:15:31;16.30;63.90
45785;DHT22;31489;51.404;5.474;2022-11-03T06:17:58;16.30;63.80
45785;DHT22;31489;51.404;5.474;2022-11-03T06:20:24;16.30;63.80
45785;DHT22;31489;51.404;5.474;2022-11-03T06:22:51;16.30;63.80
45785;DHT22;31489;51.404;5.474;2022-11-03T06:27:51;16.20;63.90
45785;DHT22;31489;51.404;5.474;2022-11-03T06:30:25;16.30;63.80
45785;DHT22;31489;51.404;5.474;2022-11-03T06:32:51;16.20;64.00
45785;DHT22;31489;51.404;5.474;2022-11-03T06:35:18;16.20;63.70
45785;DHT22;31489;51.404;5.474;2022-11-03T06:37:43;16.30;63.80
45785;DHT22;31489;51.404;5.474;2022-11-03T06:42:35;16.20;63.70
45785;DHT22;31489;51.404;5.474;2022-11-03T06:45:32;16.30;63.90
45785;DHT22;31489;51.404;5.474;2022-11-03T06:47:58;16.30;64.10
45785;DHT22;31489;51.404;5.474;2022-11-03T06:50:28;16.30;63.80
45785;DHT22;31489;51.404;5.474;2022-11-03T06:52:56;16.30;63.90
45785;DHT22;31489;51.404;5.474;2022-11-03T06:55:32;16.30;63.90
45785;DHT22;31489;51.404;5.474;2022-11-03T06:58:03;16.30;63.80
45785;DHT22;31489;51.404;5.474;2022-11-03T07:00:34;16.30;63.90
45785;DHT22;31489;51.404;5.474;2022-11-03T07:03:28;16.30;63.70
45785;DHT22;31489;51.404;5.474;2022-11-03T07:06:22;16.30;63.90
45785;DHT22;31489;51.404;5.474;2022-11-03T07:08:54;16.30;64.00
45785;DHT22;31489;51.404;5.474;2022-11-03T07:11:30;16.30;63.80
45785;DHT22;31489;51.404;5.474;2022-11-03T07:14:10;16.30;63.90
45785;DHT22;31489;51.404;5.474;2022-11-03T07:16:42;16.30;63.70
45785;DHT22;31489;51.404;5.474;2022-11-03T07:19:25;16.30;63.60
45785;DHT22;31489;51.404;5.474;2022-11-03T07:24:38;16.30;63.90
45785;DHT22;31489;51.404;5.474;2022-11-03T07:27:24;16.40;63.90
45785;DHT22;31489;51.404;5.474;2022-11-03T07:29:56;16.30;63.80
45785;DHT22;31489;51.404;5.474;2022-11-03T07:32:25;16.40;63.60
45785;DHT22;31489;51.404;5.474;2022-11-03T07:35:01;16.40;63.60
45785;DHT22;31489;51.404;5.474;2022-11-03T07:37:27;16.40;63.70
45785;DHT22;31489;51.404;5.474;2022-11-03T07:39:53;16.40;63.60
45785;DHT22;31489;51.404;5.474;2022-11-03T07:42:23;16.40;63.50
45785;DHT22;31489;51.404;5.474;2022-11-03T07:44:51;16.40;63.60
45785;DHT22;31489;51.404;5.474;2022-11-03T07:47:24;16.50;63.50
45785;DHT22;31489;51.404;5.474;2022-11-03T07:49:53;16.50;63.50
45785;DHT22;31489;51.404;5.474;2022-11-03T07:52:22;16.50;63.30
45785;DHT22;31489;51.404;5.474;2022-11-03T07:54:49;16.50;63.40
45785;DHT22;31489;51.404;5.474;2022-11-03T07:57:19;16.50;63.30
45785;DHT22;31489;51.404;5.474;2022-11-03T07:59:55;16.50;63.40
45785;DHT22;31489;51.404;5.474;2022-11-03T08:02:27;16.60;63.40
45785;DHT22;31489;51.404;5.474;2022-11-03T08:04:54;16.60;63.20
45785;DHT22;31489;51.404;5.474;2022-11-03T08:07:20;16.60;63.20
45785;DHT22;31489;51.404;5.474;2022-11-03T08:09:45;16.60;63.20
45785;DHT22;31489;51.404;5.474;2022-11-03T08:12:11;16.60;63.10
45785;DHT22;31489;51.404;5.474;2022-11-03T08:14:37;16.70;63.20
45785;DHT22;31489;51.404;5.474;2022-11-03T08:17:03;16.70;63.10
45785;DHT22;31489;51.404;5.474;2022-11-03T08:19:28;16.70;63.00
45785;DHT22;31489;51.404;5.474;2022-11-03T08:21:55;16.70;62.90
45785;DHT22;31489;51.404;5.474;2022-11-03T08:24:21;16.70;62.90
45785;DHT22;31489;51.404;5.474;2022-11-03T08:26:47;16.70;62.80
45785;DHT22;31489;51.404;5.474;2022-11-03T08:29:12;16.70;62.70
45785;DHT22;31489;51.404;5.474;2022-11-03T08:31:38;16.70;62.70
45785;DHT22;31489;51.404;5.474;2022-11-03T08:34:03;16.80;62.60
45785;DHT22;31489;51.404;5.474;2022-11-03T08:36:29;16.80;62.70
45785;DHT22;31489;51.404;5.474;2022-11-03T08:38:55;16.80;62.60
45785;DHT22;31489;51.404;5.474;2022-11-03T08:41:20;16.90;62.60
45785;DHT22;31489;51.404;5.474;2022-11-03T08:43:46;16.90;62.50
45785;DHT22;31489;51.404;5.474;2022-11-03T08:46:11;16.90;62.50
45785;DHT22;31489;51.404;5.474;2022-11-03T08:48:37;16.90;62.30
45785;DHT22;31489;51.404;5.474;2022-11-03T08:51:03;17.00;62.30
45785;DHT22;31489;51.404;5.474;2022-11-03T08:53:28;17.00;62.20
45785;DHT22;31489;51.404;5.474;2022-11-03T08:55:54;17.00;62.20
45785;DHT22;31489;51.404;5.474;2022-11-03T08:58:21;17.10;62.10
45785;DHT22;31489;51.404;5.474;2022-11-03T09:00:50;17.10;62.10
45785;DHT22;31489;51.404;5.474;2022-11-03T09:03:16;17.10;61.80
45785;DHT22;31489;51.404;5.474;2022-11-03T09:05:41;17.20;61.90
45785;DHT22;31489;51.404;5.474;2022-11-03T09:08:07;17.20;61.90
45785;DHT22;31489;51.404;5.474;2022-11-03T09:10:33;17.20;61.80
45785;DHT22;31489;51.404;5.474;2022-11-03T09:12:59;17.30;61.80
45785;DHT22;31489;51.404;5.474;2022-11-03T09:15:24;17.40;61.90
45785;DHT22;31489;51.404;5.474;2022-11-03T09:17:50;17.40;62.30
45785;DHT22;31489;51.404;5.474;2022-11-03T09:20:18;17.40;61.50
45785;DHT22;31489;51.404;5.474;2022-11-03T09:22:45;17.50;61.60
45785;DHT22;31489;51.404;5.474;2022-11-03T09:25:11;17.50;61.30
45785;DHT22;31489;51.404;5.474;2022-11-03T09:27:36;17.60;61.10
45785;DHT22;31489;51.404;5.474;2022-11-03T09:30:03;17.60;61.00
45785;DHT22;31489;51.404;5.474;2022-11-03T09:32:29;17.70;61.00
45785;DHT22;31489;51.404;5.474;2022-11-03T09:34:54;17.70;60.90
45785;DHT22;31489;51.404;5.474;2022-11-03T09:37:20;17.70;60.80
45785;DHT22;31489;51.404;5.474;2022-11-03T09:39:47;17.70;60.80
45785;DHT22;31489;51.404;5.474;2022-11-03T09:42:13;17.70;60.50
45785;DHT22;31489;51.404;5.474;2022-11-03T09:44:39;17.70;60.60
45785;DHT22;31489;51.404;5.474;2022-11-03T09:47:05;17.70;60.50
45785;DHT22;31489;51.404;5.474;2022-11-03T09:49:32;17.70;60.40
45785;DHT22;31489;51.404;5.474;2022-11-03T09:52:01;17.80;60.50
45785;DHT22;31489;51.404;5.474;2022-11-03T09:54:27;17.70;60.30
45785;DHT22;31489;51.404;5.474;2022-11-03T09:57:04;17.80;60.40
45785;DHT22;31489;51.404;5.474;2022-11-03T09:59:30;17.70;60.30
45785;DHT22;31489;51.404;5.474;2022-11-03T10:01:56;17.70;60.20
45785;DHT22;31489;51.404;5.474;2022-11-03T10:04:28;17.70;60.10
45785;DHT22;31489;51.404;5.474;2022-11-03T10:06:56;17.70;60.10
45785;DHT22;31489;51.404;5.474;2022-11-03T10:09:23;17.70;60.10
45785;DHT22;31489;51.404;5.474;2022-11-03T10:11:50;17.70;59.80
45785;DHT22;31489;51.404;5.474;2022-11-03T10:14:17;17.70;59.80
45785;DHT22;31489;51.404;5.474;2022-11-03T10:16:55;17.70;59.70
45785;DHT22;31489;51.404;5.474;2022-11-03T10:19:22;17.80;59.60
45785;DHT22;31489;51.404;5.474;2022-11-03T10:21:48;17.70;59.70
45785;DHT22;31489;51.404;5.474;2022-11-03T10:24:15;17.70;59.80
45785;DHT22;31489;51.404;5.474;2022-11-03T10:26:48;17.70;59.70
45785;DHT22;31489;51.404;5.474;2022-11-03T10:29:23;17.70;59.70
45785;DHT22;31489;51.404;5.474;2022-11-03T10:31:51;17.70;59.90
45785;DHT22;31489;51.404;5.474;2022-11-03T10:34:25;17.70;59.70
45785;DHT22;31489;51.404;5.474;2022-11-03T10:39:42;17.70;59.60
45785;DHT22;31489;51.404;5.474;2022-11-03T10:42:19;17.70;59.50
45785;DHT22;31489;51.404;5.474;2022-11-03T10:44:45;17.70;59.40
45785;DHT22;31489;51.404;5.474;2022-11-03T10:47:33;17.70;59.40
45785;DHT22;31489;51.404;5.474;2022-11-03T10:50:09;17.70;59.20
45785;DHT22;31489;51.404;5.474;2022-11-03T10:52:37;17.80;59.20
45785;DHT22;31489;51.404;5.474;2022-11-03T10:55:03;17.80;59.40
45785;DHT22;31489;51.404;5.474;2022-11-03T10:57:29;17.80;59.30
45785;DHT22;31489;51.404;5.474;2022-11-03T10:59:56;17.80;59.20
45785;DHT22;31489;51.404;5.474;2022-11-03T11:02:29;17.90;59.10
45785;DHT22;31489;51.404;5.474;2022-11-03T11:05:01;17.90;59.10
45785;DHT22;31489;51.404;5.474;2022-11-03T11:07:41;17.90;59.10
45785;DHT22;31489;51.404;5.474;2022-11-03T11:15:41;18.00;58.70
45785;DHT22;31489;51.404;5.474;2022-11-03T11:18:08;18.00;58.70
45785;DHT22;31489;51.404;5.474;2022-11-03T11:20:38;18.10;58.60
45785;DHT22;31489;51.404;5.474;2022-11-03T11:28:44;18.20;58.40
45785;DHT22;31489;51.404;5.474;2022-11-03T11:31:31;18.20;58.30
45785;DHT22;31489;51.404;5.474;2022-11-03T11:36:40;18.30;57.80
45785;DHT22;31489;51.404;5.474;2022-11-03T11:39:18;18.30;57.70
45785;DHT22;31489;51.404;5.474;2022-11-03T11:47:21;18.40;57.10
45785;DHT22;31489;51.404;5.474;2022-11-03T11:52:45;18.50;56.80
45785;DHT22;31489;51.404;5.474;2022-11-03T11:57:50;18.60;56.90
45785;DHT22;31489;51.404;5.474;2022-11-03T12:00:21;18.50;57.00
45785;DHT22;31489;51.404;5.474;2022-11-03T12:02:47;18.50;56.70
45785;DHT22;31489;51.404;5.474;2022-11-03T12:05:28;18.60;57.00
45785;DHT22;31489;51.404;5.474;2022-11-03T12:07:55;18.60;57.10
45785;DHT22;31489;51.404;5.474;2022-11-03T12:12:48;18.70;57.00
45785;DHT22;31489;51.404;5.474;2022-11-03T12:18:41;18.80;56.40
45785;DHT22;31489;51.404;5.474;2022-11-03T12:21:43;18.80;56.30
45785;DHT22;31489;51.404;5.474;2022-11-03T12:23:56;18.90;56.70
45785;DHT22;31489;51.404;5.474;2022-11-03T12:28:53;18.90;56.00
45785;DHT22;31489;51.404;5.474;2022-11-03T12:31:19;19.00;56.30
45785;DHT22;31489;51.404;5.474;2022-11-03T12:33:45;19.00;57.00
45785;DHT22;31489;51.404;5.474;2022-11-03T12:36:11;19.00;56.00
45785;DHT22;31489;51.404;5.474;2022-11-03T12:38:37;19.10;56.10
45785;DHT22;31489;51.404;5.474;2022-11-03T12:41:02;19.10;55.90
45785;DHT22;31489;51.404;5.474;2022-11-03T12:43:49;19.10;56.00
45785;DHT22;31489;51.404;5.474;2022-11-03T12:46:21;19.10;56.10
45785;DHT22;31489;51.404;5.474;2022-11-03T12:48:47;19.10;55.80
45785;DHT22;31489;51.404;5.474;2022-11-03T12:51:21;19.20;55.90
45785;DHT22;31489;51.404;5.474;2022-11-03T12:53:47;19.20;55.50
45785;DHT22;31489;51.404;5.474;2022-11-03T12:56:14;19.30;55.40
45785;DHT22;31489;51.404;5.474;2022-11-03T12:58:40;19.40;55.20
45785;DHT22;31489;51.404;5.474;2022-11-03T13:01:07;19.40;55.00
45785;DHT22;31489;51.404;5.474;2022-11-03T13:03:33;19.40;55.00
45785;DHT22;31489;51.404;5.474;2022-11-03T13:06:03;19.40;54.90
45785;DHT22;31489;51.404;5.474;2022-11-03T13:08:32;19.40;54.50
45785;DHT22;31489;51.404;5.474;2022-11-03T13:10:58;19.40;54.80
45785;DHT22;31489;51.404;5.474;2022-11-03T13:13:24;19.40;54.90
45785;DHT22;31489;51.404;5.474;2022-11-03T13:15:50;19.40;55.20
45785;DHT22;31489;51.404;5.474;2022-11-03T13:18:20;19.40;54.90
45785;DHT22;31489;51.404;5.474;2022-11-03T13:20:46;19.30;54.90
45785;DHT22;31489;51.404;5.474;2022-11-03T13:23:12;19.30;54.70
45785;DHT22;31489;51.404;5.474;2022-11-03T13:25:37;19.30;54.70
45785;DHT22;31489;51.404;5.474;2022-11-03T13:28:04;19.30;54.60
45785;DHT22;31489;51.404;5.474;2022-11-03T13:30:30;19.30;54.80
45785;DHT22;31489;51.404;5.474;2022-11-03T13:32:56;19.20;54.70
45785;DHT22;31489;51.404;5.474;2022-11-03T13:35:22;19.20;54.80
45785;DHT22;31489;51.404;5.474;2022-11-03T13:37:47;19.20;55.00
45785;DHT22;31489;51.404;5.474;2022-11-03T13:40:14;19.20;54.70
45785;DHT22;31489;51.404;5.474;2022-11-03T13:42:40;19.20;54.90
45785;DHT22;31489;51.404;5.474;2022-11-03T13:45:07;19.20;54.80
45785;DHT22;31489;51.404;5.474;2022-11-03T13:47:33;19.20;55.10
45785;DHT22;31489;51.404;5.474;2022-11-03T13:49:59;19.20;55.70
45785;DHT22;31489;51.404;5.474;2022-11-03T13:52:25;19.10;56.00
45785;DHT22;31489;51.404;5.474;2022-11-03T13:54:51;19.10;57.30
45785;DHT22;31489;51.404;5.474;2022-11-03T13:57:17;19.00;57.40
45785;DHT22;31489;51.404;5.474;2022-11-03T13:59:43;19.00;57.30
45785;DHT22;31489;51.404;5.474;2022-11-03T14:02:09;18.90;57.60
45785;DHT22;31489;51.404;5.474;2022-11-03T14:04:34;18.80;58.30
45785;DHT22;31489;51.404;5.474;2022-11-03T14:07:00;18.80;59.30
45785;DHT22;31489;51.404;5.474;2022-11-03T14:09:26;18.70;59.50
45785;DHT22;31489;51.404;5.474;2022-11-03T14:11:51;18.70;59.00
45785;DHT22;31489;51.404;5.474;2022-11-03T14:14:36;18.60;59.80
45785;DHT22;31489;51.404;5.474;2022-11-03T14:17:01;18.50;59.60
45785;DHT22;31489;51.404;5.474;2022-11-03T14:19:27;18.50;59.10
45785;DHT22;31489;51.404;5.474;2022-11-03T14:21:52;18.40;59.70
45785;DHT22;31489;51.404;5.474;2022-11-03T14:24:18;18.40;60.10
45785;DHT22;31489;51.404;5.474;2022-11-03T14:26:44;18.30;60.40
45785;DHT22;31489;51.404;5.474;2022-11-03T14:29:09;18.20;60.90
45785;DHT22;31489;51.404;5.474;2022-11-03T14:31:35;18.10;61.80
45785;DHT22;31489;51.404;5.474;2022-11-03T14:34:01;18.00;62.20
45785;DHT22;31489;51.404;5.474;2022-11-03T14:36:27;17.90;62.20
45785;DHT22;31489;51.404;5.474;2022-11-03T14:38:52;17.80;62.70
45785;DHT22;31489;51.404;5.474;2022-11-03T14:41:18;17.80;64.10
45785;DHT22;31489;51.404;5.474;2022-11-03T14:44:02;17.70;64.30
45785;DHT22;31489;51.404;5.474;2022-11-03T14:46:29;17.60;64.20
45785;DHT22;31489;51.404;5.474;2022-11-03T14:48:54;17.60;64.40
45785;DHT22;31489;51.404;5.474;2022-11-03T14:51:20;17.60;64.60
45785;DHT22;31489;51.404;5.474;2022-11-03T14:53:46;17.60;65.20
45785;DHT22;31489;51.404;5.474;2022-11-03T14:56:11;17.50;65.10
45785;DHT22;31489;51.404;5.474;2022-11-03T14:58:37;17.50;65.40
45785;DHT22;31489;51.404;5.474;2022-11-03T15:01:03;17.50;65.50
45785;DHT22;31489;51.404;5.474;2022-11-03T15:03:29;17.50;65.60
45785;DHT22;31489;51.404;5.474;2022-11-03T15:05:55;17.40;65.60
45785;DHT22;31489;51.404;5.474;2022-11-03T15:08:22;17.40;65.50
45785;DHT22;31489;51.404;5.474;2022-11-03T15:10:48;17.40;65.50
45785;DHT22;31489;51.404;5.474;2022-11-03T15:13:14;17.40;65.50
45785;DHT22;31489;51.404;5.474;2022-11-03T15:15:40;17.40;66.00
45785;DHT22;31489;51.404;5.474;2022-11-03T15:18:08;17.30;65.70
45785;DHT22;31489;51.404;5.474;2022-11-03T15:20:34;17.30;66.10
45785;DHT22;31489;51.404;5.474;2022-11-03T15:23:05;17.30;65.90
45785;DHT22;31489;51.404;5.474;2022-11-03T15:25:31;17.30;66.40
45785;DHT22;31489;51.404;5.474;2022-11-03T15:27:57;17.30;66.00
45785;DHT22;31489;51.404;5.474;2022-11-03T15:30:23;17.30;66.10
45785;DHT22;31489;51.404;5.474;2022-11-03T15:32:49;17.30;66.40
45785;DHT22;31489;51.404;5.474;2022-11-03T15:35:15;17.30;66.40
45785;DHT22;31489;51.404;5.474;2022-11-03T15:37:40;17.30;66.30
45785;DHT22;31489;51.404;5.474;2022-11-03T15:40:11;17.30;66.50
45785;DHT22;31489;51.404;5.474;2022-11-03T15:42:37;17.30;66.70
45785;DHT22;31489;51.404;5.474;2022-11-03T15:45:02;17.30;66.40
45785;DHT22;31489;51.404;5.474;2022-11-03T15:47:28;17.30;66.20
45785;DHT22;31489;51.404;5.474;2022-11-03T15:49:54;17.30;66.40
45785;DHT22;31489;51.404;5.474;2022-11-03T15:52:19;17.30;66.30
45785;DHT22;31489;51.404;5.474;2022-11-03T15:54:45;17.30;66.60
45785;DHT22;31489;51.404;5.474;2022-11-03T15:57:10;17.30;66.60
45785;DHT22;31489;51.404;5.474;2022-11-03T15:59:36;17.30;66.60
45785;DHT22;31489;51.404;5.474;2022-11-03T16:02:03;17.30;66.80
45785;DHT22;31489;51.404;5.474;2022-11-03T16:04:29;17.20;66.60
45785;DHT22;31489;51.404;5.474;2022-11-03T16:06:54;17.30;66.70
45785;DHT22;31489;51.404;5.474;2022-11-03T16:09:20;17.20;66.80
45785;DHT22;31489;51.404;5.474;2022-11-03T16:11:45;17.30;67.10
45785;DHT22;31489;51.404;5.474;2022-11-03T16:14:11;17.30;67.30
45785;DHT22;31489;51.404;5.474;2022-11-03T16:16:37;17.30;67.00
45785;DHT22;31489;51.404;5.474;2022-11-03T16:19:03;17.20;67.00
45785;DHT22;31489;51.404;5.474;2022-11-03T16:21:28;17.30;67.00
45785;DHT22;31489;51.404;5.474;2022-11-03T16:23:54;17.20;66.90
45785;DHT22;31489;51.404;5.474;2022-11-03T16:26:19;17.30;67.20
45785;DHT22;31489;51.404;5.474;2022-11-03T16:28:48;17.20;67.20
45785;DHT22;31489;51.404;5.474;2022-11-03T16:31:14;17.20;67.40
45785;DHT22;31489;51.404;5.474;2022-11-03T16:33:56;17.20;67.80
45785;DHT22;31489;51.404;5.474;2022-11-03T16:36:23;17.20;68.40
45785;DHT22;31489;51.404;5.474;2022-11-03T16:38:49;17.20;67.70
45785;DHT22;31489;51.404;5.474;2022-11-03T16:41:14;17.10;68.00
45785;DHT22;31489;51.404;5.474;2022-11-03T16:43:40;17.10;68.00